createdAt,value
2023-02-19T00:00:43.570Z,85.49
2023-02-19T00:06:09.476Z,86.82
2023-02-19T00:11:15.860Z,86.67
2023-02-19T00:16:30.208Z,86.54
2023-02-19T00:21:33.953Z,86.62
2023-02-19T00:26:39.910Z,86.66
2023-02-19T00:31:43.969Z,87.01
2023-02-19T00:36:47.371Z,87.68
2023-02-19T00:41:50.698Z,87.72
2023-02-19T00:46:54.473Z,87.14
2023-02-19T00:51:58.070Z,87.41
2023-02-19T00:57:01.465Z,87.22
2023-02-19T01:02:04.920Z,87.63
2023-02-19T01:07:10.144Z,88.12
2023-02-19T01:12:13.625Z,88.31
2023-02-19T01:17:17.164Z,88.36
2023-02-19T01:22:20.498Z,88.40
2023-02-19T01:27:23.973Z,87.74
2023-02-19T01:32:27.354Z,87.64
2023-02-19T01:37:30.715Z,86.93
2023-02-19T01:42:33.986Z,86.42
2023-02-19T01:47:37.334Z,86.57
2023-02-19T01:52:40.677Z,86.73
2023-02-19T01:57:47.874Z,87.08
2023-02-19T02:02:55.223Z,87.62
2023-02-19T02:08:19.029Z,88.53
2023-02-19T02:13:22.352Z,87.70
2023-02-19T02:18:35.530Z,86.99
2023-02-19T02:24:04.969Z,86.56
2023-02-19T02:29:37.834Z,86.90
2023-02-19T02:34:47.875Z,87.04
2023-02-19T02:39:52.111Z,87.27
2023-02-19T02:45:17.455Z,87.99
2023-02-19T02:50:26.137Z,88.62
2023-02-19T02:55:32.281Z,89.21
2023-02-19T03:00:55.758Z,89.01
2023-02-19T03:06:04.057Z,89.31
2023-02-19T03:11:30.601Z,88.95
2023-02-19T03:16:55.736Z,89.58
2023-02-19T03:22:02.491Z,89.19
2023-02-19T03:27:08.286Z,88.96
2023-02-19T03:32:21.588Z,89.48
2023-02-19T03:37:35.608Z,89.95
2023-02-19T03:42:54.402Z,89.79
2023-02-19T03:48:18.973Z,90.31
2023-02-19T03:54:05.033Z,90.58
2023-02-19T03:59:29.488Z,90.04
2023-02-19T04:04:36.898Z,89.92
2023-02-19T04:09:45.207Z,90.33
2023-02-19T04:14:58.963Z,89.74
2023-02-19T04:20:06.012Z,89.46
2023-02-19T04:25:09.769Z,89.74
2023-02-19T04:30:14.739Z,90.19
2023-02-19T04:35:18.284Z,90.49
2023-02-19T04:40:42.174Z,90.84
2023-02-19T04:45:45.996Z,90.78
2023-02-19T04:51:07.917Z,91.17
2023-02-19T04:56:14.186Z,90.57
2023-02-19T05:01:18.116Z,90.94
2023-02-19T05:06:21.777Z,90.62
2023-02-19T05:11:25.383Z,91.35
2023-02-19T05:16:29.597Z,90.78
2023-02-19T05:21:42.006Z,91.07
2023-02-19T05:26:45.605Z,90.70
2023-02-19T05:31:49.650Z,90.72
2023-02-19T05:36:52.990Z,90.79
2023-02-19T05:41:56.329Z,90.57
2023-02-19T05:47:00.339Z,90.11
2023-02-19T05:52:06.925Z,89.91
2023-02-19T05:57:10.184Z,89.61
2023-02-19T06:02:13.692Z,89.08
2023-02-19T06:07:17.188Z,88.25
2023-02-19T06:12:20.496Z,88.64
2023-02-19T06:17:26.432Z,88.98
2023-02-19T06:22:37.700Z,89.18
2023-02-19T06:27:40.978Z,89.70
2023-02-19T06:32:44.409Z,89.90
2023-02-19T06:37:49.354Z,89.84
2023-02-19T06:42:52.713Z,90.32
2023-02-19T06:47:55.886Z,89.66
2023-02-19T06:52:59.197Z,89.46
2023-02-19T06:58:02.901Z,88.71
2023-02-19T07:03:06.387Z,89.07
2023-02-19T07:08:29.719Z,88.94
2023-02-19T07:13:33.549Z,88.91
2023-02-19T07:18:37.131Z,89.55
2023-02-19T07:23:41.574Z,88.78
2023-02-19T07:28:46.875Z,88.81
2023-02-19T07:33:50.715Z,88.83
2023-02-19T07:39:15.905Z,88.69
2023-02-19T07:44:20.123Z,89.60
2023-02-19T07:49:26.136Z,90.29
2023-02-19T07:54:32.412Z,89.48
2023-02-19T07:59:35.949Z,89.04
2023-02-19T08:04:39.425Z,89.42
2023-02-19T08:09:42.961Z,88.76
2023-02-19T08:14:46.467Z,88.51
2023-02-19T08:19:49.820Z,88.41
2023-02-19T08:24:53.291Z,88.00
2023-02-19T08:30:05.793Z,87.37
2023-02-19T08:35:12.293Z,87.68
2023-02-19T08:40:15.800Z,87.47
2023-02-19T08:45:19.727Z,87.85
2023-02-19T08:50:56.859Z,87.47
2023-02-19T08:56:11.092Z,87.69
2023-02-19T09:01:22.465Z,88.14
2023-02-19T09:06:26.109Z,87.54
2023-02-19T09:11:29.909Z,87.33
2023-02-19T09:16:34.527Z,87.91
2023-02-19T09:21:38.749Z,88.21
2023-02-19T09:26:42.484Z,88.11
2023-02-19T09:31:48.467Z,88.62
2023-02-19T09:36:57.682Z,88.53
2023-02-19T09:42:30.721Z,88.27
2023-02-19T09:47:37.245Z,88.25
2023-02-19T09:52:46.860Z,88.58
2023-02-19T09:57:52.051Z,88.10
2023-02-19T10:03:04.916Z,88.55
2023-02-19T10:08:14.249Z,88.53
2023-02-19T10:13:19.446Z,87.45
2023-02-19T10:18:24.642Z,83.31
2023-02-19T10:23:28.531Z,84.94
2023-02-19T10:28:35.301Z,85.39
2023-02-19T10:33:49.950Z,85.74
2023-02-19T10:38:53.748Z,86.15
2023-02-19T10:44:05.238Z,86.86
2023-02-19T10:49:37.873Z,86.91
2023-02-19T10:54:44.855Z,86.43
2023-02-19T11:00:03.814Z,87.77
2023-02-19T11:05:12.229Z,88.24
2023-02-19T11:10:28.893Z,86.53
2023-02-19T11:15:37.975Z,88.12
2023-02-19T11:21:07.667Z,89.26
2023-02-19T11:26:23.400Z,88.93
2023-02-19T11:31:34.361Z,88.67
2023-02-19T11:36:38.471Z,88.58
2023-02-19T11:42:23.275Z,88.27
2023-02-19T11:47:42.841Z,88.04
2023-02-19T11:53:32.154Z,87.71
2023-02-19T11:58:51.435Z,86.89
2023-02-19T12:04:37.911Z,87.00
2023-02-19T12:09:51.550Z,86.63
2023-02-19T12:15:06.517Z,87.30
2023-02-19T12:20:31.521Z,86.31
2023-02-19T12:25:59.514Z,85.79
2023-02-19T12:31:44.309Z,85.06
2023-02-19T12:37:16.571Z,84.38
2023-02-19T12:42:50.728Z,84.93
2023-02-19T12:48:01.524Z,84.36
2023-02-19T12:53:26.372Z,85.18
2023-02-19T12:58:35.941Z,84.74
2023-02-19T13:03:42.464Z,84.22
2023-02-19T13:09:06.295Z,83.94
2023-02-19T13:14:19.632Z,82.95
2023-02-19T13:19:26.216Z,83.24
2023-02-19T13:24:35.353Z,82.00
2023-02-19T13:29:52.922Z,82.02
2023-02-19T13:35:21.824Z,82.03
2023-02-19T13:40:32.369Z,81.95
2023-02-19T13:45:43.036Z,80.14
2023-02-19T13:50:49.036Z,80.69
2023-02-19T13:55:53.149Z,81.36
2023-02-19T14:01:18.780Z,81.38
2023-02-19T14:06:22.264Z,80.12
2023-02-19T14:12:15.493Z,77.94
2023-02-19T14:17:39.951Z,78.25
2023-02-19T14:22:46.502Z,78.82
2023-02-19T14:27:51.360Z,76.87
2023-02-19T14:33:09.800Z,76.64
2023-02-19T14:38:22.118Z,76.73
2023-02-19T14:43:26.391Z,78.36
2023-02-19T14:48:37.977Z,78.91
2023-02-19T14:53:46.545Z,78.70
2023-02-19T14:59:08.964Z,78.21
2023-02-19T15:04:27.749Z,78.54
2023-02-19T15:10:09.061Z,77.58
2023-02-19T15:15:23.071Z,76.72
2023-02-19T15:20:30.749Z,76.37
2023-02-19T15:25:36.742Z,77.19
2023-02-19T15:30:40.262Z,79.11
2023-02-19T15:35:53.051Z,79.50
2023-02-19T15:41:03.989Z,79.96
2023-02-19T15:46:20.018Z,79.93
2023-02-19T15:51:32.213Z,79.34
2023-02-19T15:56:43.556Z,78.80
2023-02-19T16:02:15.219Z,78.65
2023-02-19T16:07:32.105Z,77.52
2023-02-19T17:36:20.501Z,72.53
2023-02-19T17:41:22.393Z,71.60
2023-02-19T17:46:26.292Z,71.57
2023-02-19T17:51:28.162Z,71.61
2023-02-19T17:56:30.000Z,71.75
2023-02-19T18:01:31.979Z,70.57
2023-02-19T18:06:35.444Z,69.65
2023-02-19T18:11:38.227Z,69.08
2023-02-19T18:16:49.828Z,69.17
2023-02-19T18:21:52.231Z,69.12
2023-02-19T18:26:54.215Z,69.98
2023-02-19T18:31:57.479Z,69.95
2023-02-19T18:36:59.456Z,69.88
2023-02-19T18:42:01.761Z,70.41
2023-02-19T18:47:04.186Z,70.60
2023-02-19T18:52:06.429Z,70.72
2023-02-19T18:57:09.432Z,71.24
2023-02-19T19:02:13.276Z,71.37
2023-02-19T19:07:15.254Z,71.27
2023-02-19T19:12:17.349Z,70.78
2023-02-19T19:17:19.358Z,70.75
2023-02-19T19:22:22.366Z,70.70
2023-02-19T19:27:24.467Z,71.23
2023-02-19T19:32:27.187Z,72.30
2023-02-19T19:37:29.651Z,72.90
2023-02-19T19:42:32.613Z,73.54
2023-02-19T19:47:35.960Z,74.23
2023-02-19T19:52:40.331Z,74.59
2023-02-19T19:57:42.491Z,74.91
2023-02-19T20:02:45.886Z,75.46
2023-02-19T20:07:49.119Z,75.34
2023-02-19T20:12:51.321Z,75.93
2023-02-19T20:17:53.663Z,76.02
2023-02-19T20:22:55.764Z,76.28
2023-02-19T20:27:57.830Z,76.77
2023-02-19T20:32:59.752Z,77.04
2023-02-19T20:38:01.734Z,76.64
2023-02-19T20:43:03.778Z,76.44
2023-02-19T20:48:05.894Z,76.80
2023-02-19T20:53:08.236Z,76.90
2023-02-19T20:58:10.484Z,77.73
2023-02-19T21:03:13.486Z,77.87
2023-02-19T21:08:16.849Z,77.87
2023-02-19T21:13:18.810Z,77.59
2023-02-19T21:18:20.669Z,77.70
2023-02-19T21:23:22.712Z,76.96
2023-02-19T21:28:27.439Z,77.20
2023-02-19T21:33:29.402Z,77.55
2023-02-19T21:38:32.742Z,77.59
2023-02-19T21:43:34.863Z,77.12
2023-02-19T21:48:37.083Z,77.21
2023-02-19T21:53:39.120Z,77.58
2023-02-19T21:58:44.646Z,77.89
2023-02-19T22:03:46.637Z,77.96
2023-02-19T22:08:48.799Z,78.07
2023-02-19T22:13:51.282Z,78.15
2023-02-19T22:18:55.296Z,77.93
2023-02-19T22:23:57.851Z,78.16
2023-02-19T22:29:02.206Z,78.29
2023-02-19T22:34:04.447Z,78.18
2023-02-19T22:39:09.930Z,78.25
2023-02-19T22:44:11.931Z,78.31
2023-02-19T22:49:14.174Z,78.55
2023-02-19T22:54:16.475Z,78.03
2023-02-19T22:59:18.439Z,78.43
2023-02-19T23:04:21.797Z,78.25
2023-02-19T23:09:25.987Z,78.44
2023-02-19T23:14:28.393Z,78.02
2023-02-19T23:19:30.502Z,78.48
2023-02-19T23:24:32.970Z,78.66
2023-02-19T23:29:35.055Z,78.78
2023-02-19T23:34:37.187Z,78.30
2023-02-19T23:39:39.334Z,78.25
2023-02-19T23:44:41.413Z,78.49
2023-02-19T23:49:43.485Z,78.77
2023-02-19T23:54:45.457Z,78.35
2023-02-19T23:59:48.669Z,77.88
